sensor_id;sensor_type;location;lat;lon;timestamp;temperature;humidity
20866;DHT22;10593;48.398;10.698;2022-08-16T00:00:31;24.60;44.00
20866;DHT22;10593;48.398;10.698;2022-08-16T00:03:01;24.60;44.10
20866;DHT22;10593;48.398;10.698;2022-08-16T00:05:28;24.60;44.10
20866;DHT22;10593;48.398;10.698;2022-08-16T00:07:54;24.60;44.30
20866;DHT22;10593;48.398;10.698;2022-08-16T00:10:22;24.50;44.30
20866;DHT22;10593;48.398;10.698;2022-08-16T00:12:50;24.50;44.30
20866;DHT22;10593;48.398;10.698;2022-08-16T00:15:20;24.50;44.30
20866;DHT22;10593;48.398;10.698;2022-08-16T00:17:51;24.50;44.30
20866;DHT22;10593;48.398;10.698;2022-08-16T00:20:17;24.40;44.00
20866;DHT22;10593;48.398;10.698;2022-08-16T00:22:44;24.40;44.00
20866;DHT22;10593;48.398;10.698;2022-08-16T00:25:14;24.40;43.90
20866;DHT22;10593;48.398;10.698;2022-08-16T00:27:41;24.30;44.00
20866;DHT22;10593;48.398;10.698;2022-08-16T00:30:09;24.30;44.00
20866;DHT22;10593;48.398;10.698;2022-08-16T00:32:39;24.20;44.00
20866;DHT22;10593;48.398;10.698;2022-08-16T00:35:11;24.20;44.10
20866;DHT22;10593;48.398;10.698;2022-08-16T00:37:43;24.10;44.20
20866;DHT22;10593;48.398;10.698;2022-08-16T00:40:15;24.10;44.30
20866;DHT22;10593;48.398;10.698;2022-08-16T00:42:44;24.10;44.50
20866;DHT22;10593;48.398;10.698;2022-08-16T00:47:52;24.00;44.60
20866;DHT22;10593;48.398;10.698;2022-08-16T00:50:21;24.00;44.70
20866;DHT22;10593;48.398;10.698;2022-08-16T00:52:52;23.90;44.80
20866;DHT22;10593;48.398;10.698;2022-08-16T00:55:20;23.90;44.80
20866;DHT22;10593;48.398;10.698;2022-08-16T00:57:49;23.90;44.90
20866;DHT22;10593;48.398;10.698;2022-08-16T01:00:18;23.90;45.00
20866;DHT22;10593;48.398;10.698;2022-08-16T01:02:44;23.90;44.80
20866;DHT22;10593;48.398;10.698;2022-08-16T01:05:09;23.80;44.60
20866;DHT22;10593;48.398;10.698;2022-08-16T01:07:36;23.80;44.50
20866;DHT22;10593;48.398;10.698;2022-08-16T01:10:02;23.80;44.40
20866;DHT22;10593;48.398;10.698;2022-08-16T01:12:28;23.70;44.20
20866;DHT22;10593;48.398;10.698;2022-08-16T01:14:56;23.70;44.30
20866;DHT22;10593;48.398;10.698;2022-08-16T01:17:24;23.70;44.40
20866;DHT22;10593;48.398;10.698;2022-08-16T01:19:56;23.70;44.50
20866;DHT22;10593;48.398;10.698;2022-08-16T01:25:28;23.50;44.90
20866;DHT22;10593;48.398;10.698;2022-08-16T01:28:00;23.50;44.90
20866;DHT22;10593;48.398;10.698;2022-08-16T01:30:32;23.50;45.00
20866;DHT22;10593;48.398;10.698;2022-08-16T01:33:03;23.50;45.30
20866;DHT22;10593;48.398;10.698;2022-08-16T01:35:37;23.40;45.20
20866;DHT22;10593;48.398;10.698;2022-08-16T01:38:21;23.30;45.10
20866;DHT22;10593;48.398;10.698;2022-08-16T01:41:10;23.30;45.10
20866;DHT22;10593;48.398;10.698;2022-08-16T01:43:42;23.30;45.10
20866;DHT22;10593;48.398;10.698;2022-08-16T01:46:29;23.20;45.10
20866;DHT22;10593;48.398;10.698;2022-08-16T01:51:40;23.20;45.40
20866;DHT22;10593;48.398;10.698;2022-08-16T01:54:07;23.20;45.50
20866;DHT22;10593;48.398;10.698;2022-08-16T01:56:33;23.20;45.60
20866;DHT22;10593;48.398;10.698;2022-08-16T01:59:03;23.10;45.60
20866;DHT22;10593;48.398;10.698;2022-08-16T02:01:32;23.10;45.80
20866;DHT22;10593;48.398;10.698;2022-08-16T02:03:59;23.10;45.80
20866;DHT22;10593;48.398;10.698;2022-08-16T02:06:26;23.00;45.80
20866;DHT22;10593;48.398;10.698;2022-08-16T02:08:53;23.00;45.50
20866;DHT22;10593;48.398;10.698;2022-08-16T02:11:21;23.00;45.40
20866;DHT22;10593;48.398;10.698;2022-08-16T02:13:48;23.00;45.50
20866;DHT22;10593;48.398;10.698;2022-08-16T02:16:14;22.90;45.50
20866;DHT22;10593;48.398;10.698;2022-08-16T02:18:40;22.90;45.50
20866;DHT22;10593;48.398;10.698;2022-08-16T02:21:06;22.80;45.50
20866;DHT22;10593;48.398;10.698;2022-08-16T02:23:36;22.80;45.60
20866;DHT22;10593;48.398;10.698;2022-08-16T02:26:03;22.80;45.70
20866;DHT22;10593;48.398;10.698;2022-08-16T02:28:30;22.80;45.70
20866;DHT22;10593;48.398;10.698;2022-08-16T02:30:59;22.70;45.50
20866;DHT22;10593;48.398;10.698;2022-08-16T02:33:28;22.60;45.30
20866;DHT22;10593;48.398;10.698;2022-08-16T02:35:54;22.60;45.10
20866;DHT22;10593;48.398;10.698;2022-08-16T02:38:19;22.60;45.10
20866;DHT22;10593;48.398;10.698;2022-08-16T02:40:45;22.60;45.30
20866;DHT22;10593;48.398;10.698;2022-08-16T02:43:10;22.60;45.40
20866;DHT22;10593;48.398;10.698;2022-08-16T02:45:37;22.50;45.50
20866;DHT22;10593;48.398;10.698;2022-08-16T02:48:03;22.50;45.50
20866;DHT22;10593;48.398;10.698;2022-08-16T02:50:29;22.50;45.50
20866;DHT22;10593;48.398;10.698;2022-08-16T02:52:55;22.40;45.10
20866;DHT22;10593;48.398;10.698;2022-08-16T02:55:21;22.40;45.10
20866;DHT22;10593;48.398;10.698;2022-08-16T02:57:47;22.40;45.10
20866;DHT22;10593;48.398;10.698;2022-08-16T03:00:15;22.40;45.30
20866;DHT22;10593;48.398;10.698;2022-08-16T03:02:42;22.30;45.30
20866;DHT22;10593;48.398;10.698;2022-08-16T03:05:11;22.30;45.50
20866;DHT22;10593;48.398;10.698;2022-08-16T03:07:39;22.30;45.70
20866;DHT22;10593;48.398;10.698;2022-08-16T03:10:08;22.20;46.20
20866;DHT22;10593;48.398;10.698;2022-08-16T03:12:36;22.20;45.70
20866;DHT22;10593;48.398;10.698;2022-08-16T03:15:05;22.20;45.80
20866;DHT22;10593;48.398;10.698;2022-08-16T03:17:34;22.10;45.90
20866;DHT22;10593;48.398;10.698;2022-08-16T03:20:01;22.10;46.00
20866;DHT22;10593;48.398;10.698;2022-08-16T03:22:28;22.10;46.20
20866;DHT22;10593;48.398;10.698;2022-08-16T03:24:56;22.10;46.30
20866;DHT22;10593;48.398;10.698;2022-08-16T03:27:24;22.10;46.40
20866;DHT22;10593;48.398;10.698;2022-08-16T03:29:51;22.00;46.40
20866;DHT22;10593;48.398;10.698;2022-08-16T03:32:17;22.00;46.50
20866;DHT22;10593;48.398;10.698;2022-08-16T03:34:43;22.00;46.50
20866;DHT22;10593;48.398;10.698;2022-08-16T03:37:11;22.00;46.50
20866;DHT22;10593;48.398;10.698;2022-08-16T03:39:37;22.00;46.70
20866;DHT22;10593;48.398;10.698;2022-08-16T03:42:04;21.90;46.60
20866;DHT22;10593;48.398;10.698;2022-08-16T03:44:32;21.90;46.80
20866;DHT22;10593;48.398;10.698;2022-08-16T03:46:58;21.90;47.00
20866;DHT22;10593;48.398;10.698;2022-08-16T03:49:23;21.80;47.00
20866;DHT22;10593;48.398;10.698;2022-08-16T03:51:49;21.80;47.10
20866;DHT22;10593;48.398;10.698;2022-08-16T03:54:15;21.80;47.10
20866;DHT22;10593;48.398;10.698;2022-08-16T03:56:41;21.80;47.00
20866;DHT22;10593;48.398;10.698;2022-08-16T03:59:07;21.80;46.80
20866;DHT22;10593;48.398;10.698;2022-08-16T04:01:33;21.80;46.60
20866;DHT22;10593;48.398;10.698;2022-08-16T04:03:59;21.80;46.40
20866;DHT22;10593;48.398;10.698;2022-08-16T04:06:24;21.80;46.20
20866;DHT22;10593;48.398;10.698;2022-08-16T04:08:50;21.70;46.20
20866;DHT22;10593;48.398;10.698;2022-08-16T04:11:17;21.70;46.20
20866;DHT22;10593;48.398;10.698;2022-08-16T04:13:43;21.70;46.50
20866;DHT22;10593;48.398;10.698;2022-08-16T04:16:10;21.60;46.60
20866;DHT22;10593;48.398;10.698;2022-08-16T04:18:37;21.60;46.80
20866;DHT22;10593;48.398;10.698;2022-08-16T04:21:03;21.60;46.80
20866;DHT22;10593;48.398;10.698;2022-08-16T04:23:30;21.50;46.90
20866;DHT22;10593;48.398;10.698;2022-08-16T04:25:56;21.50;47.00
20866;DHT22;10593;48.398;10.698;2022-08-16T04:28:22;21.50;47.20
20866;DHT22;10593;48.398;10.698;2022-08-16T04:30:48;21.50;47.20
20866;DHT22;10593;48.398;10.698;2022-08-16T04:33:14;21.50;47.20
20866;DHT22;10593;48.398;10.698;2022-08-16T04:35:39;21.50;47.30
20866;DHT22;10593;48.398;10.698;2022-08-16T04:38:05;21.50;47.40
20866;DHT22;10593;48.398;10.698;2022-08-16T04:40:31;21.50;47.50
20866;DHT22;10593;48.398;10.698;2022-08-16T04:42:56;21.50;47.50
20866;DHT22;10593;48.398;10.698;2022-08-16T04:45:25;21.50;47.50
20866;DHT22;10593;48.398;10.698;2022-08-16T04:47:51;21.50;47.50
20866;DHT22;10593;48.398;10.698;2022-08-16T04:50:20;21.50;47.50
20866;DHT22;10593;48.398;10.698;2022-08-16T04:52:49;21.50;47.50
20866;DHT22;10593;48.398;10.698;2022-08-16T04:55:21;21.50;47.40
20866;DHT22;10593;48.398;10.698;2022-08-16T04:57:50;21.50;47.40
20866;DHT22;10593;48.398;10.698;2022-08-16T05:00:20;21.50;47.20
20866;DHT22;10593;48.398;10.698;2022-08-16T05:02:51;21.50;47.20
20866;DHT22;10593;48.398;10.698;2022-08-16T05:05:19;21.50;47.30
20866;DHT22;10593;48.398;10.698;2022-08-16T05:07:46;21.50;47.50
20866;DHT22;10593;48.398;10.698;2022-08-16T05:10:13;21.50;47.60
20866;DHT22;10593;48.398;10.698;2022-08-16T05:12:39;21.50;47.70
20866;DHT22;10593;48.398;10.698;2022-08-16T05:15:06;21.50;47.80
20866;DHT22;10593;48.398;10.698;2022-08-16T05:17:33;21.50;47.90
20866;DHT22;10593;48.398;10.698;2022-08-16T05:20:00;21.50;47.90
20866;DHT22;10593;48.398;10.698;2022-08-16T05:22:26;21.60;48.00
20866;DHT22;10593;48.398;10.698;2022-08-16T05:24:52;21.60;48.00
20866;DHT22;10593;48.398;10.698;2022-08-16T05:27:18;21.60;48.20
20866;DHT22;10593;48.398;10.698;2022-08-16T05:29:44;21.60;48.30
20866;DHT22;10593;48.398;10.698;2022-08-16T05:32:09;21.70;48.40
20866;DHT22;10593;48.398;10.698;2022-08-16T05:34:35;21.70;48.50
20866;DHT22;10593;48.398;10.698;2022-08-16T05:37:01;21.70;48.50
20866;DHT22;10593;48.398;10.698;2022-08-16T05:39:27;21.80;48.60
20866;DHT22;10593;48.398;10.698;2022-08-16T05:41:53;21.80;48.60
20866;DHT22;10593;48.398;10.698;2022-08-16T05:44:21;21.90;48.70
20866;DHT22;10593;48.398;10.698;2022-08-16T05:46:49;21.90;48.80
20866;DHT22;10593;48.398;10.698;2022-08-16T05:49:16;22.00;49.10
20866;DHT22;10593;48.398;10.698;2022-08-16T05:51:43;22.10;49.20
20866;DHT22;10593;48.398;10.698;2022-08-16T05:54:11;22.10;49.20
20866;DHT22;10593;48.398;10.698;2022-08-16T05:56:39;22.20;49.30
20866;DHT22;10593;48.398;10.698;2022-08-16T05:59:06;22.20;49.30
20866;DHT22;10593;48.398;10.698;2022-08-16T06:01:34;22.30;49.20
20866;DHT22;10593;48.398;10.698;2022-08-16T06:03:59;22.40;49.20
20866;DHT22;10593;48.398;10.698;2022-08-16T06:06:25;22.50;49.20
20866;DHT22;10593;48.398;10.698;2022-08-16T06:08:51;22.50;49.20
20866;DHT22;10593;48.398;10.698;2022-08-16T06:11:16;22.60;49.40
20866;DHT22;10593;48.398;10.698;2022-08-16T06:13:42;22.70;49.20
20866;DHT22;10593;48.398;10.698;2022-08-16T06:16:09;22.80;48.80
20866;DHT22;10593;48.398;10.698;2022-08-16T06:18:35;22.80;48.60
20866;DHT22;10593;48.398;10.698;2022-08-16T06:21:01;22.90;48.60
20866;DHT22;10593;48.398;10.698;2022-08-16T06:23:26;23.00;48.40
20866;DHT22;10593;48.398;10.698;2022-08-16T06:25:52;23.00;48.20
20866;DHT22;10593;48.398;10.698;2022-08-16T06:28:18;23.10;48.10
20866;DHT22;10593;48.398;10.698;2022-08-16T06:30:45;23.20;48.10
20866;DHT22;10593;48.398;10.698;2022-08-16T06:33:13;23.30;47.90
20866;DHT22;10593;48.398;10.698;2022-08-16T06:35:40;23.30;47.80
20866;DHT22;10593;48.398;10.698;2022-08-16T06:38:06;23.30;47.80
20866;DHT22;10593;48.398;10.698;2022-08-16T06:40:31;23.40;47.60
20866;DHT22;10593;48.398;10.698;2022-08-16T06:42:58;23.50;47.60
20866;DHT22;10593;48.398;10.698;2022-08-16T06:45:24;23.70;47.50
20866;DHT22;10593;48.398;10.698;2022-08-16T06:47:50;23.70;47.60
20866;DHT22;10593;48.398;10.698;2022-08-16T06:50:16;23.80;47.40
20866;DHT22;10593;48.398;10.698;2022-08-16T06:52:43;23.90;47.40
20866;DHT22;10593;48.398;10.698;2022-08-16T06:55:12;24.00;47.30
20866;DHT22;10593;48.398;10.698;2022-08-16T06:57:40;24.10;47.20
20866;DHT22;10593;48.398;10.698;2022-08-16T07:00:09;24.30;47.00
20866;DHT22;10593;48.398;10.698;2022-08-16T07:02:40;24.40;47.00
20866;DHT22;10593;48.398;10.698;2022-08-16T07:05:07;24.50;46.70
20866;DHT22;10593;48.398;10.698;2022-08-16T07:07:34;24.70;46.70
20866;DHT22;10593;48.398;10.698;2022-08-16T07:10:00;24.80;46.40
20866;DHT22;10593;48.398;10.698;2022-08-16T07:12:27;24.90;46.30
20866;DHT22;10593;48.398;10.698;2022-08-16T07:14:53;25.00;46.20
20866;DHT22;10593;48.398;10.698;2022-08-16T07:17:19;25.20;45.90
20866;DHT22;10593;48.398;10.698;2022-08-16T07:19:47;25.30;45.60
20866;DHT22;10593;48.398;10.698;2022-08-16T07:22:13;25.30;45.50
20866;DHT22;10593;48.398;10.698;2022-08-16T07:24:42;25.40;45.20
20866;DHT22;10593;48.398;10.698;2022-08-16T07:27:10;25.50;45.10
20866;DHT22;10593;48.398;10.698;2022-08-16T07:29:37;25.60;45.00
20866;DHT22;10593;48.398;10.698;2022-08-16T07:32:05;25.70;44.70
20866;DHT22;10593;48.398;10.698;2022-08-16T07:34:31;25.80;44.80
20866;DHT22;10593;48.398;10.698;2022-08-16T07:37:00;25.80;44.50
20866;DHT22;10593;48.398;10.698;2022-08-16T07:39:29;25.90;44.30
20866;DHT22;10593;48.398;10.698;2022-08-16T07:41:55;26.00;43.90
20866;DHT22;10593;48.398;10.698;2022-08-16T07:44:20;26.00;43.60
20866;DHT22;10593;48.398;10.698;2022-08-16T07:46:46;26.10;43.60
20866;DHT22;10593;48.398;10.698;2022-08-16T07:49:12;26.10;43.10
20866;DHT22;10593;48.398;10.698;2022-08-16T07:51:38;26.20;43.20
20866;DHT22;10593;48.398;10.698;2022-08-16T07:54:06;26.20;43.10
20866;DHT22;10593;48.398;10.698;2022-08-16T07:56:33;26.30;43.20
20866;DHT22;10593;48.398;10.698;2022-08-16T07:58:59;26.30;43.10
20866;DHT22;10593;48.398;10.698;2022-08-16T08:01:26;26.40;43.20
20866;DHT22;10593;48.398;10.698;2022-08-16T08:03:55;26.40;42.60
20866;DHT22;10593;48.398;10.698;2022-08-16T08:06:24;26.50;42.40
20866;DHT22;10593;48.398;10.698;2022-08-16T08:08:55;26.50;42.10
20866;DHT22;10593;48.398;10.698;2022-08-16T08:11:23;26.50;42.10
20866;DHT22;10593;48.398;10.698;2022-08-16T08:13:50;26.50;42.10
20866;DHT22;10593;48.398;10.698;2022-08-16T08:16:17;26.60;42.20
20866;DHT22;10593;48.398;10.698;2022-08-16T08:18:46;26.60;42.00
20866;DHT22;10593;48.398;10.698;2022-08-16T08:21:13;26.60;42.10
20866;DHT22;10593;48.398;10.698;2022-08-16T08:23:39;26.60;41.90
20866;DHT22;10593;48.398;10.698;2022-08-16T08:26:04;26.70;41.90
20866;DHT22;10593;48.398;10.698;2022-08-16T08:28:33;26.70;41.80
20866;DHT22;10593;48.398;10.698;2022-08-16T08:31:01;26.70;41.60
20866;DHT22;10593;48.398;10.698;2022-08-16T08:33:28;26.60;41.90
20866;DHT22;10593;48.398;10.698;2022-08-16T08:35:59;26.60;41.90
20866;DHT22;10593;48.398;10.698;2022-08-16T08:38:27;26.60;41.80
20866;DHT22;10593;48.398;10.698;2022-08-16T08:40:56;26.60;41.80
20866;DHT22;10593;48.398;10.698;2022-08-16T08:43:22;26.60;41.80
20866;DHT22;10593;48.398;10.698;2022-08-16T08:45:48;26.60;42.00
20866;DHT22;10593;48.398;10.698;2022-08-16T08:48:16;26.70;42.10
20866;DHT22;10593;48.398;10.698;2022-08-16T08:50:43;26.70;42.10
20866;DHT22;10593;48.398;10.698;2022-08-16T08:53:08;26.70;42.00
20866;DHT22;10593;48.398;10.698;2022-08-16T08:55:35;26.70;42.00
20866;DHT22;10593;48.398;10.698;2022-08-16T08:58:01;26.80;42.10
20866;DHT22;10593;48.398;10.698;2022-08-16T09:00:27;26.80;42.10
20866;DHT22;10593;48.398;10.698;2022-08-16T09:02:54;26.80;41.90
20866;DHT22;10593;48.398;10.698;2022-08-16T09:05:22;26.80;41.90
20866;DHT22;10593;48.398;10.698;2022-08-16T09:07:51;26.80;42.00
20866;DHT22;10593;48.398;10.698;2022-08-16T09:10:17;26.80;41.50
20866;DHT22;10593;48.398;10.698;2022-08-16T09:12:42;26.90;41.70
20866;DHT22;10593;48.398;10.698;2022-08-16T09:15:10;26.90;41.60
20866;DHT22;10593;48.398;10.698;2022-08-16T09:17:37;26.90;41.70
20866;DHT22;10593;48.398;10.698;2022-08-16T09:20:05;26.90;41.50
20866;DHT22;10593;48.398;10.698;2022-08-16T09:22:32;26.90;41.10
20866;DHT22;10593;48.398;10.698;2022-08-16T09:24:58;27.00;40.60
20866;DHT22;10593;48.398;10.698;2022-08-16T09:27:24;27.00;40.90
20866;DHT22;10593;48.398;10.698;2022-08-16T09:29:51;27.00;40.90
20866;DHT22;10593;48.398;10.698;2022-08-16T09:32:17;27.00;40.60
20866;DHT22;10593;48.398;10.698;2022-08-16T09:34:44;27.00;40.60
20866;DHT22;10593;48.398;10.698;2022-08-16T09:37:10;27.00;40.60
20866;DHT22;10593;48.398;10.698;2022-08-16T09:39:37;27.10;40.60
20866;DHT22;10593;48.398;10.698;2022-08-16T09:42:03;27.10;40.80
20866;DHT22;10593;48.398;10.698;2022-08-16T09:44:29;27.10;40.60
20866;DHT22;10593;48.398;10.698;2022-08-16T09:46:55;27.10;40.10
20866;DHT22;10593;48.398;10.698;2022-08-16T09:49:22;27.10;40.40
20866;DHT22;10593;48.398;10.698;2022-08-16T09:51:49;27.10;40.10
20866;DHT22;10593;48.398;10.698;2022-08-16T09:54:18;27.10;39.70
20866;DHT22;10593;48.398;10.698;2022-08-16T09:56:48;27.20;39.90
20866;DHT22;10593;48.398;10.698;2022-08-16T09:59:15;27.20;39.80
20866;DHT22;10593;48.398;10.698;2022-08-16T10:01:41;27.20;39.30
20866;DHT22;10593;48.398;10.698;2022-08-16T10:04:09;27.20;39.30
20866;DHT22;10593;48.398;10.698;2022-08-16T10:06:36;27.20;39.30
20866;DHT22;10593;48.398;10.698;2022-08-16T10:09:06;27.20;39.70
20866;DHT22;10593;48.398;10.698;2022-08-16T10:11:34;27.20;39.40
20866;DHT22;10593;48.398;10.698;2022-08-16T10:14:20;27.30;39.40
20866;DHT22;10593;48.398;10.698;2022-08-16T10:16:46;27.30;39.30
20866;DHT22;10593;48.398;10.698;2022-08-16T10:19:13;27.30;39.30
20866;DHT22;10593;48.398;10.698;2022-08-16T10:21:40;27.40;39.00
20866;DHT22;10593;48.398;10.698;2022-08-16T10:24:06;27.40;38.80
20866;DHT22;10593;48.398;10.698;2022-08-16T10:26:34;27.40;39.10
20866;DHT22;10593;48.398;10.698;2022-08-16T10:29:02;27.50;39.10
20866;DHT22;10593;48.398;10.698;2022-08-16T10:31:30;27.50;38.40
20866;DHT22;10593;48.398;10.698;2022-08-16T10:33:56;27.60;38.50
20866;DHT22;10593;48.398;10.698;2022-08-16T10:36:21;27.50;38.30
20866;DHT22;10593;48.398;10.698;2022-08-16T10:38:47;27.60;38.40
20866;DHT22;10593;48.398;10.698;2022-08-16T10:41:13;27.60;38.20
20866;DHT22;10593;48.398;10.698;2022-08-16T10:43:40;27.70;38.20
20866;DHT22;10593;48.398;10.698;2022-08-16T10:46:09;27.60;37.50
20866;DHT22;10593;48.398;10.698;2022-08-16T10:48:37;27.70;37.30
20866;DHT22;10593;48.398;10.698;2022-08-16T10:51:04;27.70;37.70
20866;DHT22;10593;48.398;10.698;2022-08-16T10:53:31;27.70;37.80
20866;DHT22;10593;48.398;10.698;2022-08-16T10:55:58;27.70;37.80
20866;DHT22;10593;48.398;10.698;2022-08-16T10:58:25;27.70;37.90
20866;DHT22;10593;48.398;10.698;2022-08-16T11:00:51;27.80;38.10
20866;DHT22;10593;48.398;10.698;2022-08-16T11:03:18;27.80;37.80
20866;DHT22;10593;48.398;10.698;2022-08-16T11:05:45;27.80;37.10
20866;DHT22;10593;48.398;10.698;2022-08-16T11:08:11;27.90;36.90
20866;DHT22;10593;48.398;10.698;2022-08-16T11:10:43;27.90;36.40
20866;DHT22;10593;48.398;10.698;2022-08-16T11:13:13;27.90;36.00
20866;DHT22;10593;48.398;10.698;2022-08-16T11:15:40;28.00;36.30
20866;DHT22;10593;48.398;10.698;2022-08-16T11:18:08;28.00;36.50
20866;DHT22;10593;48.398;10.698;2022-08-16T11:20:34;27.90;36.40
20866;DHT22;10593;48.398;10.698;2022-08-16T11:23:00;28.00;36.40
20866;DHT22;10593;48.398;10.698;2022-08-16T11:25:29;28.00;36.20
20866;DHT22;10593;48.398;10.698;2022-08-16T11:27:57;28.00;36.30
20866;DHT22;10593;48.398;10.698;2022-08-16T11:30:25;28.10;36.30
20866;DHT22;10593;48.398;10.698;2022-08-16T11:32:53;28.10;36.10
20866;DHT22;10593;48.398;10.698;2022-08-16T11:35:23;28.20;35.80
20866;DHT22;10593;48.398;10.698;2022-08-16T11:38:04;28.10;35.50
20866;DHT22;10593;48.398;10.698;2022-08-16T11:40:47;28.20;35.40
20866;DHT22;10593;48.398;10.698;2022-08-16T11:43:26;28.20;35.70
20866;DHT22;10593;48.398;10.698;2022-08-16T11:45:56;28.20;35.40
20866;DHT22;10593;48.398;10.698;2022-08-16T11:48:25;28.20;35.20
20866;DHT22;10593;48.398;10.698;2022-08-16T11:50:53;28.30;35.30
20866;DHT22;10593;48.398;10.698;2022-08-16T11:53:20;28.30;35.40
20866;DHT22;10593;48.398;10.698;2022-08-16T11:55:49;28.30;34.40
20866;DHT22;10593;48.398;10.698;2022-08-16T11:58:16;28.30;34.40
20866;DHT22;10593;48.398;10.698;2022-08-16T12:00:44;28.40;35.00
20866;DHT22;10593;48.398;10.698;2022-08-16T12:03:11;28.40;34.60
20866;DHT22;10593;48.398;10.698;2022-08-16T12:05:38;28.40;34.20
20866;DHT22;10593;48.398;10.698;2022-08-16T12:08:06;28.50;34.40
20866;DHT22;10593;48.398;10.698;2022-08-16T12:10:34;28.50;34.70
20866;DHT22;10593;48.398;10.698;2022-08-16T12:13:01;28.50;34.60
20866;DHT22;10593;48.398;10.698;2022-08-16T12:15:27;28.50;34.60
20866;DHT22;10593;48.398;10.698;2022-08-16T12:17:53;28.60;34.80
20866;DHT22;10593;48.398;10.698;2022-08-16T12:20:24;28.60;35.10
20866;DHT22;10593;48.398;10.698;2022-08-16T12:22:55;28.70;34.90
20866;DHT22;10593;48.398;10.698;2022-08-16T12:25:23;28.70;34.20
20866;DHT22;10593;48.398;10.698;2022-08-16T12:27:54;28.70;34.20
20866;DHT22;10593;48.398;10.698;2022-08-16T12:30:23;28.80;34.00
20866;DHT22;10593;48.398;10.698;2022-08-16T12:33:02;28.80;33.90
20866;DHT22;10593;48.398;10.698;2022-08-16T12:35:29;28.80;34.20
20866;DHT22;10593;48.398;10.698;2022-08-16T12:37:58;28.80;34.00
20866;DHT22;10593;48.398;10.698;2022-08-16T12:40:29;28.90;33.80
20866;DHT22;10593;48.398;10.698;2022-08-16T12:42:59;28.90;33.70
20866;DHT22;10593;48.398;10.698;2022-08-16T12:45:33;28.90;33.60
20866;DHT22;10593;48.398;10.698;2022-08-16T12:48:01;28.90;33.30
20866;DHT22;10593;48.398;10.698;2022-08-16T12:50:47;28.90;33.50
20866;DHT22;10593;48.398;10.698;2022-08-16T12:53:13;29.00;33.70
20866;DHT22;10593;48.398;10.698;2022-08-16T12:55:40;29.00;33.70
20866;DHT22;10593;48.398;10.698;2022-08-16T12:58:06;29.00;33.60
20866;DHT22;10593;48.398;10.698;2022-08-16T13:00:32;29.00;33.60
20866;DHT22;10593;48.398;10.698;2022-08-16T13:03:00;29.00;33.10
20866;DHT22;10593;48.398;10.698;2022-08-16T13:05:27;29.10;33.10
20866;DHT22;10593;48.398;10.698;2022-08-16T13:07:56;29.10;33.10
20866;DHT22;10593;48.398;10.698;2022-08-16T13:10:23;29.10;33.20
20866;DHT22;10593;48.398;10.698;2022-08-16T13:12:53;29.10;33.20
20866;DHT22;10593;48.398;10.698;2022-08-16T13:15:23;29.10;33.30
20866;DHT22;10593;48.398;10.698;2022-08-16T13:17:51;29.10;33.20
20866;DHT22;10593;48.398;10.698;2022-08-16T13:20:20;29.20;33.10
20866;DHT22;10593;48.398;10.698;2022-08-16T13:22:57;29.10;33.10
20866;DHT22;10593;48.398;10.698;2022-08-16T13:25:32;29.10;33.10
20866;DHT22;10593;48.398;10.698;2022-08-16T13:28:00;29.20;33.20
20866;DHT22;10593;48.398;10.698;2022-08-16T13:30:32;29.20;33.30
20866;DHT22;10593;48.398;10.698;2022-08-16T13:33:00;29.20;33.30
20866;DHT22;10593;48.398;10.698;2022-08-16T13:35:28;29.20;33.30
20866;DHT22;10593;48.398;10.698;2022-08-16T13:37:55;29.20;33.20
20866;DHT22;10593;48.398;10.698;2022-08-16T13:40:21;29.20;33.10
20866;DHT22;10593;48.398;10.698;2022-08-16T13:42:47;29.20;32.90
20866;DHT22;10593;48.398;10.698;2022-08-16T13:45:15;29.20;32.70
20866;DHT22;10593;48.398;10.698;2022-08-16T13:47:41;29.20;32.80
20866;DHT22;10593;48.398;10.698;2022-08-16T13:50:08;29.20;32.90
20866;DHT22;10593;48.398;10.698;2022-08-16T13:52:34;29.20;32.90
20866;DHT22;10593;48.398;10.698;2022-08-16T13:55:01;29.20;32.90
20866;DHT22;10593;48.398;10.698;2022-08-16T13:57:26;29.30;33.00
20866;DHT22;10593;48.398;10.698;2022-08-16T13:59:52;29.20;32.60
20866;DHT22;10593;48.398;10.698;2022-08-16T14:02:18;29.30;32.70
20866;DHT22;10593;48.398;10.698;2022-08-16T14:04:44;29.30;32.70
20866;DHT22;10593;48.398;10.698;2022-08-16T14:07:12;29.30;32.40
20866;DHT22;10593;48.398;10.698;2022-08-16T14:09:40;29.30;32.40
20866;DHT22;10593;48.398;10.698;2022-08-16T14:12:25;29.30;32.30
20866;DHT22;10593;48.398;10.698;2022-08-16T14:14:53;29.30;32.20
20866;DHT22;10593;48.398;10.698;2022-08-16T14:17:20;29.30;32.40
20866;DHT22;10593;48.398;10.698;2022-08-16T14:19:48;29.30;32.60
20866;DHT22;10593;48.398;10.698;2022-08-16T14:22:17;29.30;32.70
20866;DHT22;10593;48.398;10.698;2022-08-16T14:24:46;29.30;32.70
20866;DHT22;10593;48.398;10.698;2022-08-16T14:27:15;29.30;33.00
20866;DHT22;10593;48.398;10.698;2022-08-16T14:29:42;29.30;33.60
20866;DHT22;10593;48.398;10.698;2022-08-16T14:32:07;29.30;33.10
20866;DHT22;10593;48.398;10.698;2022-08-16T14:34:33;29.30;32.70
20866;DHT22;10593;48.398;10.698;2022-08-16T14:36:59;29.30;32.70
20866;DHT22;10593;48.398;10.698;2022-08-16T14:39:24;29.40;32.70
20866;DHT22;10593;48.398;10.698;2022-08-16T14:41:50;29.40;32.60
20866;DHT22;10593;48.398;10.698;2022-08-16T14:44:16;29.40;32.60
20866;DHT22;10593;48.398;10.698;2022-08-16T14:46:41;29.40;32.70
20866;DHT22;10593;48.398;10.698;2022-08-16T14:49:07;29.40;32.30
20866;DHT22;10593;48.398;10.698;2022-08-16T14:51:34;29.40;32.10
20866;DHT22;10593;48.398;10.698;2022-08-16T14:53:59;29.50;31.90
20866;DHT22;10593;48.398;10.698;2022-08-16T14:56:27;29.50;31.80
20866;DHT22;10593;48.398;10.698;2022-08-16T14:58:53;29.50;31.70
20866;DHT22;10593;48.398;10.698;2022-08-16T15:01:18;29.60;31.80
20866;DHT22;10593;48.398;10.698;2022-08-16T15:03:44;29.60;31.80
20866;DHT22;10593;48.398;10.698;2022-08-16T15:06:10;29.60;31.70
20866;DHT22;10593;48.398;10.698;2022-08-16T15:08:35;29.60;31.70
20866;DHT22;10593;48.398;10.698;2022-08-16T15:11:01;29.60;31.80
20866;DHT22;10593;48.398;10.698;2022-08-16T15:13:27;29.70;31.70
20866;DHT22;10593;48.398;10.698;2022-08-16T15:15:52;29.60;31.40
20866;DHT22;10593;48.398;10.698;2022-08-16T15:18:18;29.60;31.50
20866;DHT22;10593;48.398;10.698;2022-08-16T15:20:44;29.60;31.50
20866;DHT22;10593;48.398;10.698;2022-08-16T15:23:10;29.60;31.60
20866;DHT22;10593;48.398;10.698;2022-08-16T15:25:41;29.70;31.80